createdAt,value
2019-06-07T05:42:47.963Z,28.77
2019-06-07T05:45:20.364Z,4.50
2019-06-07T05:47:50.912Z,4.47
2019-06-07T05:52:50.601Z,5.70
2019-06-07T05:55:19.659Z,5.63
2019-06-07T05:57:51.063Z,5.27
2019-06-07T06:00:19.380Z,4.50
2019-06-07T06:03:03.980Z,5.80
2019-06-07T06:05:33.355Z,5.63
2019-06-07T06:07:50.973Z,5.33
2019-06-07T06:10:19.999Z,4.90
2019-06-07T06:12:51.850Z,5.63
2019-06-07T06:15:38.598Z,5.57
2019-06-07T06:17:53.889Z,6.00
2019-06-07T06:20:22.913Z,4.97
2019-06-07T06:22:51.788Z,6.30
2019-06-07T06:25:38.525Z,5.30
2019-06-07T06:28:12.092Z,4.13
2019-06-07T06:30:22.280Z,5.57
2019-06-07T06:32:57.787Z,5.13
2019-06-07T06:35:21.815Z,4.77
2019-06-07T06:37:53.185Z,4.03
2019-06-07T06:40:21.610Z,4.17
2019-06-07T06:42:50.683Z,4.30
2019-06-07T06:45:20.332Z,3.30
2019-06-07T06:47:50.622Z,3.77
2019-06-07T06:50:20.958Z,4.50
2019-06-07T06:52:54.229Z,3.20
2019-06-07T06:55:20.733Z,3.03
2019-06-07T06:57:51.413Z,3.03
2019-06-07T07:00:43.043Z,3.40
2019-06-07T07:05:28.766Z,2.90
2019-06-07T07:07:57.885Z,3.20
2019-06-07T07:10:39.193Z,3.50
2019-06-07T07:13:08.818Z,2.70
2019-06-07T07:15:37.919Z,3.83
2019-06-07T07:18:08.944Z,3.53
2019-06-07T07:20:37.759Z,3.20
2019-06-07T07:23:06.903Z,3.30
2019-06-07T07:25:36.004Z,3.17
2019-06-07T07:28:05.533Z,3.83
2019-06-07T07:30:44.819Z,2.70
2019-06-07T07:33:14.343Z,3.27
2019-06-07T07:36:07.610Z,3.20
2019-06-07T07:38:14.113Z,2.90
2019-06-07T07:41:13.740Z,3.03
2019-06-07T07:43:15.030Z,3.40
2019-06-07T07:45:46.755Z,4.10
2019-06-07T07:48:18.567Z,3.60
2019-06-07T07:50:49.831Z,4.40
2019-06-07T07:53:17.455Z,3.87
2019-06-07T07:55:50.390Z,4.60
2019-06-07T07:58:17.219Z,5.13
2019-06-07T08:00:53.041Z,4.27
2019-06-07T08:03:17.237Z,4.77
2019-06-07T08:05:47.242Z,5.00
2019-06-07T08:08:17.167Z,4.30
2019-06-07T08:10:50.377Z,5.27
2019-06-07T08:13:25.451Z,5.63
2019-06-07T08:15:48.432Z,4.83
2019-06-07T08:18:17.971Z,5.67
2019-06-07T08:21:04.903Z,5.07
2019-06-07T08:23:17.570Z,5.77
2019-06-07T08:25:49.106Z,5.07
2019-06-07T08:28:18.074Z,5.10
2019-06-07T08:30:50.507Z,5.67
2019-06-07T08:33:25.888Z,5.27
2019-06-07T08:36:16.942Z,4.60
2019-06-07T08:38:27.316Z,5.53
2019-06-07T08:40:54.668Z,5.43
2019-06-07T08:43:21.379Z,5.57
2019-06-07T08:45:55.910Z,6.47
2019-06-07T08:48:27.744Z,6.67
2019-06-07T08:50:57.058Z,6.83
2019-06-07T08:53:23.163Z,5.70
2019-06-07T08:55:58.198Z,5.57
2019-06-07T08:58:22.904Z,5.83
2019-06-07T09:00:53.568Z,6.20
2019-06-07T09:03:22.707Z,5.90
2019-06-07T09:05:53.592Z,6.63
2019-06-07T09:08:29.900Z,5.63
2019-06-07T09:10:54.035Z,6.73
2019-06-07T09:13:23.849Z,6.10
2019-06-07T09:15:53.688Z,7.00
2019-06-07T09:18:41.234Z,7.03
2019-06-07T09:21:01.135Z,6.70
2019-06-07T09:23:29.945Z,6.43
2019-06-07T09:26:09.812Z,6.53
2019-06-07T09:28:30.239Z,7.00
2019-06-07T09:31:03.621Z,5.90
2019-06-07T09:33:30.541Z,7.17
2019-06-07T09:36:01.593Z,6.73
2019-06-07T09:38:30.185Z,8.83
2019-06-07T09:41:00.441Z,7.07
2019-06-07T09:46:04.649Z,5.40
2019-06-07T09:49:10.079Z,5.07
2019-06-07T09:51:09.705Z,5.63
2019-06-07T09:53:32.652Z,4.60
2019-06-07T09:56:03.563Z,5.47
2019-06-07T09:58:51.744Z,4.53
2019-06-07T10:01:06.175Z,5.07
2019-06-07T10:03:33.714Z,4.80
2019-06-07T10:06:07.595Z,5.30
2019-06-07T10:11:04.775Z,4.30
2019-06-07T10:13:33.899Z,4.43
2019-06-07T10:16:03.051Z,3.93
2019-06-07T10:18:31.989Z,3.00
2019-06-07T10:21:01.392Z,4.37
2019-06-07T10:23:30.413Z,4.17
2019-06-07T10:25:59.447Z,3.00
2019-06-07T10:28:28.534Z,2.60
2019-06-07T10:30:57.448Z,3.77
2019-06-07T10:33:26.378Z,3.40
2019-06-07T10:35:55.324Z,6.10
2019-06-07T10:38:24.354Z,3.43
2019-06-07T10:40:53.467Z,5.13
2019-06-07T10:43:22.387Z,6.23
2019-06-07T10:45:51.479Z,4.80
2019-06-07T10:48:20.420Z,3.73
2019-06-07T10:53:21.738Z,5.07
2019-06-07T10:55:50.634Z,2.70
2019-06-07T10:58:19.917Z,3.20
2019-06-07T11:00:49.277Z,2.40
2019-06-07T11:03:18.363Z,3.40
2019-06-07T11:05:47.889Z,4.13
2019-06-07T11:08:17.543Z,3.53
2019-06-07T11:10:46.975Z,3.03
2019-06-07T11:13:16.214Z,2.60
2019-06-07T11:15:45.511Z,3.30
2019-06-07T11:18:15.015Z,2.80
2019-06-07T11:20:43.938Z,4.20
2019-06-07T11:23:14.312Z,5.00
2019-06-07T11:25:46.059Z,4.60
2019-06-07T11:28:15.412Z,3.30
2019-06-07T11:30:46.330Z,4.23
2019-06-07T11:33:16.428Z,3.90
2019-06-07T11:35:46.123Z,2.90
2019-06-07T11:38:15.188Z,7.00
2019-06-07T11:40:44.222Z,3.20
2019-06-07T11:43:15.277Z,4.47
2019-06-07T11:45:44.419Z,2.40
2019-06-07T11:48:21.715Z,3.30
2019-06-07T11:50:51.405Z,3.00
2019-06-07T11:53:20.639Z,3.30
2019-06-07T11:55:49.825Z,3.20
2019-06-07T11:58:21.723Z,2.80
2019-06-07T12:00:51.223Z,2.97
2019-06-07T12:03:20.275Z,2.70
2019-06-07T12:05:52.545Z,3.17
2019-06-07T12:08:21.594Z,3.63
2019-06-07T12:10:51.756Z,3.50
2019-06-07T12:13:21.503Z,2.47
2019-06-07T12:15:52.623Z,3.50
2019-06-07T12:18:21.595Z,3.17
2019-06-07T12:20:50.675Z,2.77
2019-06-07T12:23:20.159Z,4.20
2019-06-07T12:25:49.255Z,4.00
2019-06-07T12:28:18.814Z,3.00
2019-06-07T12:30:47.897Z,4.93
2019-06-07T12:33:17.695Z,5.40
2019-06-07T12:35:46.776Z,4.07
2019-06-07T12:38:17.366Z,3.10
2019-06-07T12:40:57.308Z,3.17
2019-06-07T12:43:24.513Z,2.53
2019-06-07T12:45:54.219Z,2.20
2019-06-07T12:48:26.062Z,2.27
2019-06-07T12:50:55.885Z,2.33
2019-06-07T12:53:38.245Z,2.30
2019-06-07T12:56:07.265Z,3.23
2019-06-07T12:58:39.459Z,2.47
2019-06-07T13:01:07.117Z,2.27
2019-06-07T13:03:36.385Z,2.73
2019-06-07T13:06:05.397Z,2.87
2019-06-07T13:08:34.250Z,5.63
2019-06-07T13:11:14.756Z,4.37
2019-06-07T13:13:33.649Z,2.80
2019-06-07T13:16:02.649Z,2.70
2019-06-07T13:18:31.486Z,2.60
2019-06-07T13:21:00.297Z,3.10
2019-06-07T13:23:29.806Z,2.57
2019-06-07T13:25:58.890Z,2.73
2019-06-07T13:28:28.960Z,2.30
2019-06-07T13:30:58.186Z,2.73
2019-06-07T13:33:33.054Z,2.37
2019-06-07T13:35:57.944Z,2.90
2019-06-07T13:38:28.842Z,2.30
2019-06-07T13:40:57.828Z,2.60
2019-06-07T13:43:28.206Z,2.40
2019-06-07T13:45:57.322Z,2.43
2019-06-07T13:48:27.502Z,2.90
2019-06-07T13:50:56.882Z,2.77
2019-06-07T13:53:25.681Z,2.60
2019-06-07T13:55:54.517Z,2.63
2019-06-07T13:58:24.252Z,2.50
2019-06-07T14:00:53.255Z,2.67
2019-06-07T14:03:26.873Z,2.80
2019-06-07T14:05:53.006Z,2.17
2019-06-07T14:08:23.161Z,2.07
2019-06-07T14:10:52.462Z,2.80
2019-06-07T14:13:21.583Z,2.57
2019-06-07T14:15:50.473Z,1.67
2019-06-07T14:18:20.406Z,2.47
2019-06-07T14:20:49.457Z,1.90
2019-06-07T14:23:18.459Z,2.33
2019-06-07T14:25:47.458Z,4.17
2019-06-07T14:28:16.330Z,6.73
2019-06-07T14:30:45.219Z,3.80
2019-06-07T14:33:14.119Z,4.30
2019-06-07T14:35:43.156Z,2.87
2019-06-07T14:38:12.121Z,3.90
2019-06-07T14:40:41.156Z,3.20
2019-06-07T14:43:10.260Z,2.50
2019-06-07T14:45:39.394Z,2.60
2019-06-07T14:48:08.599Z,2.27
2019-06-07T14:50:37.489Z,2.53
2019-06-07T14:53:06.668Z,2.60
2019-06-07T14:55:35.482Z,2.40
2019-06-07T14:58:04.370Z,2.30
2019-06-07T15:00:40.533Z,2.90
2019-06-07T15:03:09.724Z,2.63
2019-06-07T15:05:40.441Z,2.67
2019-06-07T15:08:09.382Z,2.43
2019-06-07T15:10:39.272Z,3.20
2019-06-07T15:13:08.498Z,2.83
2019-06-07T15:15:38.871Z,2.27
2019-06-07T15:18:08.041Z,2.77
2019-06-07T15:20:38.370Z,2.60
2019-06-07T15:23:07.555Z,2.33
2019-06-07T15:25:36.411Z,2.70
2019-06-07T15:28:05.441Z,2.47
2019-06-07T15:30:35.635Z,2.70
2019-06-07T15:33:05.033Z,3.40
2019-06-07T15:35:35.971Z,3.53
2019-06-07T15:38:04.795Z,2.70
2019-06-07T15:40:35.181Z,3.67
2019-06-07T15:43:04.302Z,3.13
2019-06-07T15:45:33.677Z,4.57
2019-06-07T15:48:02.779Z,3.00
2019-06-07T15:50:32.187Z,3.43
2019-06-07T15:53:01.545Z,3.47
2019-06-07T15:55:31.182Z,2.80
2019-06-07T15:58:00.971Z,3.60
2019-06-07T16:00:31.376Z,3.20
2019-06-07T16:03:00.339Z,2.83
2019-06-07T16:05:29.182Z,3.07
2019-06-07T16:07:58.080Z,2.70
2019-06-07T16:10:27.011Z,3.10
2019-06-07T16:13:00.684Z,3.50
2019-06-07T16:15:26.743Z,3.13
2019-06-07T16:17:55.712Z,4.00
2019-06-07T16:20:25.593Z,4.10
2019-06-07T16:22:54.469Z,3.60
2019-06-07T16:25:23.485Z,3.23
2019-06-07T16:27:52.482Z,3.50
2019-06-07T16:30:21.611Z,3.83
2019-06-07T16:32:50.481Z,3.83
2019-06-07T16:35:19.532Z,4.50
2019-06-07T16:37:51.640Z,4.70
2019-06-07T16:40:19.616Z,5.77
2019-06-07T16:42:49.101Z,4.33
2019-06-07T16:45:18.461Z,4.70
2019-06-07T16:47:48.477Z,5.43
2019-06-07T16:50:17.963Z,5.07
2019-06-07T16:52:48.426Z,6.57
2019-06-07T16:55:18.762Z,3.80
2019-06-07T16:57:49.095Z,5.70
2019-06-07T17:00:18.498Z,5.60
2019-06-07T17:02:48.735Z,4.40
2019-06-07T17:05:18.145Z,4.67
2019-06-07T17:07:48.802Z,3.83
2019-06-07T17:10:17.893Z,5.40
2019-06-07T17:12:47.024Z,3.43
2019-06-07T17:15:18.196Z,4.00
2019-06-07T17:17:47.188Z,4.03
2019-06-07T17:20:16.974Z,4.20
2019-06-07T17:22:47.334Z,3.80
2019-06-07T17:25:18.041Z,4.03
2019-06-07T17:27:48.206Z,5.37
2019-06-07T17:30:18.207Z,4.07
2019-06-07T17:32:55.124Z,4.43
2019-06-07T17:35:17.835Z,4.80
2019-06-07T17:37:49.146Z,5.43
2019-06-07T17:40:17.415Z,5.27
2019-06-07T17:42:46.789Z,4.93
2019-06-07T17:45:16.148Z,7.13
2019-06-07T17:47:45.946Z,7.93
2019-06-07T17:50:15.237Z,6.10
2019-06-07T17:52:45.827Z,5.40
2019-06-07T17:55:15.197Z,5.53
2019-06-07T17:57:44.294Z,6.60
2019-06-07T18:00:33.544Z,7.80
2019-06-07T18:02:47.360Z,6.00
2019-06-07T18:05:18.925Z,5.10
2019-06-07T18:07:51.704Z,4.80
2019-06-07T18:10:34.975Z,4.00
2019-06-07T18:13:04.196Z,4.90
2019-06-07T18:15:41.180Z,4.90
2019-06-07T18:18:10.327Z,4.57
2019-06-07T18:20:39.693Z,5.87
2019-06-07T18:23:09.233Z,7.43
2019-06-07T18:25:41.350Z,6.07
2019-06-07T18:28:10.396Z,6.33
2019-06-07T18:30:40.441Z,7.33
2019-06-07T18:33:10.531Z,6.80
2019-06-07T18:35:39.403Z,7.60
2019-06-07T18:38:10.700Z,7.20
2019-06-07T18:40:38.867Z,9.13
2019-06-07T18:43:08.119Z,11.07
2019-06-07T18:45:37.255Z,9.50
2019-06-07T18:48:06.353Z,10.40
2019-06-07T18:50:36.141Z,12.10
2019-06-07T18:53:05.573Z,12.63
2019-06-07T18:55:34.662Z,17.00
2019-06-07T18:58:04.073Z,15.40
2019-06-07T19:00:33.624Z,16.57
2019-06-07T19:03:02.843Z,12.90
2019-06-07T19:05:31.778Z,13.00
2019-06-07T19:08:01.186Z,11.90
2019-06-07T19:10:30.194Z,12.87
2019-06-07T19:13:00.501Z,16.17
2019-06-07T19:15:33.257Z,14.57
2019-06-07T19:18:02.731Z,14.23
2019-06-07T19:20:33.348Z,15.50
2019-06-07T19:23:02.302Z,19.73
2019-06-07T19:25:33.543Z,27.70
2019-06-07T19:28:02.503Z,22.63
2019-06-07T19:30:35.736Z,17.70
2019-06-07T19:33:06.820Z,21.30
2019-06-07T19:35:35.716Z,19.70
2019-06-07T19:38:09.445Z,21.67
2019-06-07T19:40:38.542Z,23.87
2019-06-07T19:43:14.437Z,27.13
2019-06-07T19:45:45.957Z,27.33
2019-06-07T19:48:16.120Z,22.70
2019-06-07T19:50:45.634Z,22.43
2019-06-07T19:53:14.490Z,21.37
2019-06-07T19:55:43.415Z,21.53
2019-06-07T19:58:14.340Z,30.70
2019-06-07T20:00:43.245Z,24.67
2019-06-07T20:03:13.507Z,23.10
2019-06-07T20:05:42.949Z,24.93
2019-06-07T20:08:12.438Z,24.70
2019-06-07T20:10:41.482Z,24.10
2019-06-07T20:13:10.771Z,23.57
2019-06-07T20:15:40.379Z,24.57
2019-06-07T20:18:18.451Z,27.60
2019-06-07T20:20:48.200Z,25.00
2019-06-07T20:23:17.425Z,27.40
2019-06-07T20:25:46.730Z,30.60
2019-06-07T20:28:15.976Z,24.60
2019-06-07T20:30:44.988Z,24.80
2019-06-07T20:33:15.724Z,30.10
2019-06-07T20:35:45.907Z,24.20
2019-06-07T20:38:15.321Z,27.30
2019-06-07T20:41:12.726Z,26.50
2019-06-07T20:43:42.314Z,26.70
2019-06-07T20:46:11.830Z,24.33
2019-06-07T20:48:46.192Z,23.70
2019-06-07T20:51:15.771Z,25.00
2019-06-07T20:53:45.171Z,22.40
2019-06-07T20:56:14.265Z,23.27
2019-06-07T20:58:43.818Z,22.40
2019-06-07T21:01:20.079Z,22.67
2019-06-07T21:03:49.639Z,21.83
2019-06-07T21:06:18.898Z,21.47
2019-06-07T21:08:48.860Z,21.13
2019-06-07T21:11:18.011Z,21.80
2019-06-07T21:13:47.002Z,21.43
2019-06-07T21:16:16.292Z,19.60
2019-06-07T21:18:45.651Z,20.43
2019-06-07T21:21:14.994Z,21.53
2019-06-07T21:23:46.442Z,20.70
2019-06-07T21:26:16.151Z,21.30
2019-06-07T21:28:45.799Z,19.53
2019-06-07T21:31:21.090Z,19.50
2019-06-07T21:33:56.713Z,21.03
2019-06-07T21:36:29.803Z,20.17
2019-06-07T21:38:59.115Z,20.07
2019-06-07T21:41:29.085Z,18.43
2019-06-07T21:43:58.428Z,18.63
2019-06-07T21:46:27.553Z,18.10
2019-06-07T21:48:56.821Z,17.93
2019-06-07T21:51:25.978Z,19.50
2019-06-07T21:53:55.193Z,19.37
2019-06-07T21:56:28.368Z,19.27
2019-06-07T21:58:57.552Z,20.40
2019-06-07T22:01:28.788Z,19.97
2019-06-07T22:03:57.881Z,18.93
2019-06-07T22:06:27.065Z,19.63
2019-06-07T22:08:58.392Z,19.73
2019-06-07T22:11:27.898Z,20.17
2019-06-07T22:13:57.278Z,20.10
2019-06-07T22:16:29.370Z,20.07
2019-06-07T22:18:57.247Z,18.80
2019-06-07T22:21:26.622Z,18.50
2019-06-07T22:23:55.846Z,18.83
2019-06-07T22:26:24.641Z,20.60
2019-06-07T22:28:53.461Z,20.10
2019-06-07T22:31:22.268Z,19.60
2019-06-07T22:33:51.129Z,19.67
2019-06-07T22:36:19.934Z,20.60
2019-06-07T22:38:48.851Z,19.43
2019-06-07T22:41:17.715Z,20.63
2019-06-07T22:43:46.577Z,20.43
2019-06-07T22:46:15.378Z,20.23
2019-06-07T22:48:44.247Z,21.90
2019-06-07T22:51:14.527Z,22.37
2019-06-07T22:53:43.847Z,20.87
2019-06-07T22:56:21.601Z,19.17
2019-06-07T22:58:50.476Z,21.70
2019-06-07T23:01:20.238Z,21.03
2019-06-07T23:03:49.193Z,23.20
2019-06-07T23:06:18.938Z,22.20
2019-06-07T23:08:47.914Z,21.87
2019-06-07T23:11:17.371Z,22.10
2019-06-07T23:13:47.126Z,20.20
2019-06-07T23:16:17.758Z,21.53
2019-06-07T23:18:56.058Z,22.30
2019-06-07T23:21:26.114Z,20.63
2019-06-07T23:23:55.322Z,20.90
2019-06-07T23:26:25.889Z,20.90
2019-06-07T23:28:54.803Z,22.30
2019-06-07T23:31:23.735Z,22.80
2019-06-07T23:33:52.634Z,19.10
2019-06-07T23:36:21.531Z,21.53
2019-06-07T23:38:50.437Z,20.90
2019-06-07T23:41:20.399Z,21.47
2019-06-07T23:43:49.737Z,21.63
2019-06-07T23:46:19.473Z,22.40
2019-06-07T23:48:48.361Z,20.17
2019-06-07T23:51:17.713Z,21.70
2019-06-07T23:53:46.729Z,22.10
2019-06-07T23:56:15.948Z,23.77
2019-06-07T23:58:45.003Z,23.30
